Home   Weather   Germany   Sindelfingen   Past weeks
Flag for Germany

Past Weather in Sindelfingen, Baden-Württemberg, Germany — Yesterday and Last 2 Weeks

Currently: 82 °F. Sunny. (Weather station: Stuttgart-Echterdingen, Germany). See more current weather

Past Weather in Sindelfingen — Graph

°F

Sindelfingen Temperature Yesterday

Maximum temperature yesterday: 93 °F (at 3:20 pm)
Minimum temperature yesterday: 59 °F (at 4:50 am)
Average temperature yesterday: 77 °F

High & Low Weather Summary for the Past Weeks

 TemperatureHumidityPressure
High93 °F (Jun 17, 3:20 pm)100% (Jun 4, 5:20 am)30.33 "Hg (Jun 4, 5:20 am)
Low50 °F (Jun 14, 5:20 am)26% (Jun 18, 2:50 pm)29.92 "Hg (Jun 16, 6:50 pm)
Average68 °F69%30.12 "Hg
* Reported Jun 3 8:20 pm — Jun 18 8:20 pm, Sindelfingen. Weather by CustomWeather, © 2021

Note: Actual official high and low records may vary slightly from our data, if they occured in-between our weather recording intervals... More about our weather records

Sindelfingen Weather History for the Previous 24 Hours

Scroll right to see more
 ConditionsComfort  
Time TempWeatherWind HumidityBarometerVisibility
8:20 pm
Fri, Jun 18
82 °FSunny.2 mph40%29.95 "Hg10 mi
7:50 pm84 °FSunny.2 mph37%29.95 "Hg10 mi
7:20 pm88 °FSunny.1 mph38%29.92 "Hg10 mi
6:50 pm93 °FSunny.2 mph26%29.92 "Hg10 mi
6:20 pm93 °FSunny.1 mph26%29.92 "Hg10 mi
5:50 pm91 °FPassing clouds.3 mph32%29.92 "HgN/A
5:20 pm91 °FSunny.1 mph28%29.92 "Hg10 mi
4:50 pm91 °FSunny.2 mph32%29.95 "Hg10 mi
4:20 pm93 °FSunny.2 mph30%29.95 "Hg10 mi
3:50 pm91 °FPassing clouds.5 mph30%29.95 "HgN/A
3:20 pm91 °FSunny.2 mph32%29.95 "Hg10 mi
2:50 pm91 °FPassing clouds.5 mph26%29.95 "HgN/A
2:20 pm90 °FPassing clouds.5 mph27%29.98 "HgN/A
1:50 pm90 °FPassing clouds.5 mph33%29.98 "HgN/A
1:20 pm88 °FSunny.2 mph40%29.98 "Hg10 mi
12:50 pm88 °FSunny.2 mph35%29.98 "Hg10 mi
12:20 pm88 °FSunny.2 mph43%29.98 "Hg10 mi
11:50 am84 °FSunny.2 mph45%29.98 "Hg10 mi
11:20 am84 °FSunny.3 mph48%29.98 "Hg10 mi
10:50 am82 °FPassing clouds.5 mph48%29.98 "HgN/A
10:20 am81 °FSunny.2 mph48%29.98 "Hg10 mi
9:20 am77 °FPassing clouds.3 mph57%30.01 "HgN/A
8:50 am75 °FPassing clouds.3 mph65%30.01 "HgN/A
8:20 am75 °FSunny.5 mph65%30.01 "Hg10 mi
7:50 am73 °FSunny.1 mph61%29.98 "Hg10 mi
7:20 am70 °FSunny.2 mph73%29.98 "Hg10 mi
6:50 am66 °FSunny.2 mph78%29.98 "Hg10 mi
6:20 am63 °FPassing clouds.3 mph83%29.98 "HgN/A
5:50 am63 °FSunny.3 mph83%29.98 "Hg10 mi
5:20 am61 °FSunny.2 mph88%29.98 "Hg10 mi
4:50 am61 °FCool.2 mph88%29.95 "HgN/A
4:20 am63 °FClear.1 mph77%29.95 "Hg10 mi
3:50 am63 °FClear.1 mph83%29.95 "Hg10 mi
3:20 am64 °FMild.2 mph78%29.95 "HgN/A
2:50 am64 °FClear.3 mph78%29.95 "Hg10 mi
2:20 am66 °FClear.1 mph73%29.95 "Hg10 mi
1:50 am66 °FClear.5 mph73%29.95 "Hg10 mi
1:20 am70 °FClear.3 mph69%29.98 "Hg10 mi
12:50 am70 °FClear.1 mph69%29.98 "Hg10 mi
12:20 am70 °FClear.2 mph69%29.95 "Hg10 mi
11:50 pm
Thu, Jun 17
70 °FClear.3 mph69%29.95 "Hg10 mi
11:20 pm72 °FClear.1 mph65%29.95 "Hg10 mi
10:50 pm72 °FPassing clouds.3 mph69%29.95 "HgN/A
10:20 pm73 °FClear.3 mph65%29.95 "Hg10 mi
9:50 pm77 °FClear.3 mph57%29.95 "Hg10 mi
9:20 pm81 °FSunny.1 mph48%29.95 "Hg10 mi
Weather by CustomWeather, © 2021

See weather overview